Time;durP1;ratioP1;P1;durP2;ratioP2;P2;SDS_P1;SDS_P2;PMS_P1;PMS_P2;Temp;Humidity;BMP_temperature;BMP_pressure;BME280_temperature;BME280_humidity;BME280_pressure;Samples;Min_cycle;Max_cycle;Signal;HPM_P1;HPM_P2
2022/11/26 00:02:21;;;;;;;;;;;;;;;6.20;58.65;101242.69;5080251;28;19925;-62
2022/11/26 00:04:47;;;;;;;;;;;;;;;6.23;58.59;101253.19;5076605;28;19920;-61
2022/11/26 00:07:14;;;;;;;;;;;;;;;6.25;58.66;101248.81;5074222;28;19974;-58
2022/11/26 00:09:39;;;;;;;;;;;;;;;6.25;58.74;101247.09;5077139;28;19952;-62
2022/11/26 00:12:24;;;;;;;;;;;;;;;6.23;58.64;101258.41;5077114;28;19948;-61
2022/11/26 00:14:50;;;;;;;;;;;;;;;6.33;58.64;101255.88;5076098;28;19927;-61
2022/11/26 00:17:15;;;;;;;;;;;;;;;6.36;58.44;101247.19;5079245;28;19916;-60
2022/11/26 00:19:41;;;;;;;;;;;;;;;6.44;58.49;101253.38;5082462;28;20329;-60
2022/11/26 00:22:27;;;;;;;;;;;;;;;6.45;58.45;101260.31;5075102;28;20350;-60
2022/11/26 00:24:53;;;;;;;;;;;;;;;6.46;58.44;101254.25;5076123;28;19952;-61
2022/11/26 00:27:19;;;;;;;;;;;;;;;6.45;58.43;101244.66;5075402;28;19963;-60
2022/11/26 00:29:44;;;;;;;;;;;;;;;6.47;58.51;101249.94;5076255;28;20378;-60
2022/11/26 00:32:17;;;;;;;;;;;;;;;6.50;58.69;101256.00;5074874;28;19931;-61
2022/11/26 00:34:42;;;;;;;;;;;;;;;6.55;58.55;101251.72;5075928;28;19920;-61
2022/11/26 00:37:17;;;;;;;;;;;;;;;6.52;58.30;101254.31;5075107;28;19939;-61
2022/11/26 00:39:42;;;;;;;;;;;;;;;6.55;58.35;101261.31;5080026;28;19928;-61
2022/11/26 00:42:09;;;;;;;;;;;;;;;6.57;58.30;101264.78;5074566;28;19928;-61
2022/11/26 00:44:34;;;;;;;;;;;;;;;6.59;58.24;101261.34;5073484;28;20398;-62
2022/11/26 00:46:59;;;;;;;;;;;;;;;6.58;58.16;101259.59;5083518;28;19920;-61
2022/11/26 00:49:27;;;;;;;;;;;;;;;6.44;58.58;101265.56;5088587;28;19933;-61
2022/11/26 00:51:52;;;;;;;;;;;;;;;6.41;58.85;101262.03;5082710;28;19931;-61
2022/11/26 00:54:18;;;;;;;;;;;;;;;6.42;58.82;101260.28;5073664;28;19925;-62
2022/11/26 00:56:43;;;;;;;;;;;;;;;6.42;58.92;101255.06;5077200;28;20015;-61
2022/11/26 00:59:12;;;;;;;;;;;;;;;6.44;58.75;101261.19;5081757;28;19925;-61
2022/11/26 01:01:37;;;;;;;;;;;;;;;6.34;59.06;101256.75;5086164;28;19948;-61
2022/11/26 01:04:02;;;;;;;;;;;;;;;6.21;59.41;101263.56;5078667;28;19959;-61
2022/11/26 01:06:30;;;;;;;;;;;;;;;6.24;59.45;101266.22;5080568;28;19920;-61
2022/11/26 01:08:55;;;;;;;;;;;;;;;6.36;59.40;101262.88;5079308;28;20394;-61
2022/11/26 01:11:21;;;;;;;;;;;;;;;6.33;59.11;101263.69;5078937;28;19916;-61
2022/11/26 01:13:48;;;;;;;;;;;;;;;6.42;59.08;101262.91;5078778;28;19925;-61
2022/11/26 01:16:23;;;;;;;;;;;;;;;6.32;59.10;101267.19;5077545;28;19935;-62
2022/11/26 01:18:49;;;;;;;;;;;;;;;6.35;59.35;101268.94;5093707;28;19920;-61
2022/11/26 01:21:15;;;;;;;;;;;;;;;6.37;59.59;101272.44;5093562;28;20015;-61
2022/11/26 01:23:40;;;;;;;;;;;;;;;6.40;59.46;101264.66;5095054;28;20426;-61
2022/11/26 01:26:09;;;;;;;;;;;;;;;6.39;59.52;101265.50;5086048;28;19929;-61
2022/11/26 01:28:34;;;;;;;;;;;;;;;6.37;59.83;101267.22;5079250;28;20395;-61
2022/11/26 01:31:00;;;;;;;;;;;;;;;6.37;59.73;101262.00;5089998;28;19928;-61
2022/11/26 01:33:25;;;;;;;;;;;;;;;6.41;59.72;101256.81;5080100;28;20326;-62
2022/11/26 01:35:50;;;;;;;;;;;;;;;6.38;59.59;101264.66;5077572;28;19925;-64
2022/11/26 01:38:17;;;;;;;;;;;;;;;6.28;59.67;101273.22;5074462;28;19964;-61
2022/11/26 01:41:08;;;;;;;;;;;;;;;6.26;59.72;101280.16;5091901;28;20430;-62
2022/11/26 01:43:40;;;;;;;;;;;;;;;6.30;59.77;101281.06;5079398;28;20373;-61
2022/11/26 01:46:14;;;;;;;;;;;;;;;6.38;59.65;101287.22;5078761;28;20300;-62
2022/11/26 01:48:39;;;;;;;;;;;;;;;6.41;59.71;101284.66;5080066;28;19959;-62
2022/11/26 01:51:08;;;;;;;;;;;;;;;6.46;59.58;101287.31;5080837;28;19958;-61
2022/11/26 01:53:42;;;;;;;;;;;;;;;6.49;59.38;101292.56;5087197;28;19921;-61
2022/11/26 01:56:13;;;;;;;;;;;;;;;6.51;59.49;101286.50;5076955;28;19928;-61
2022/11/26 01:58:41;;;;;;;;;;;;;;;6.54;59.66;101290.88;5079597;28;20184;-61
2022/11/26 02:01:06;;;;;;;;;;;;;;;6.55;59.45;101287.41;5085503;28;19931;-61
2022/11/26 02:03:33;;;;;;;;;;;;;;;6.55;59.51;101283.06;5074749;28;19932;-61
2022/11/26 02:06:02;;;;;;;;;;;;;;;6.52;59.40;101288.25;5083765;28;19920;-61
2022/11/26 02:08:29;;;;;;;;;;;;;;;6.50;59.53;101295.19;5083033;28;20395;-61
2022/11/26 02:10:55;;;;;;;;;;;;;;;6.53;59.53;101290.00;5078093;28;20007;-63
2022/11/26 02:13:20;;;;;;;;;;;;;;;6.64;59.45;101290.09;5078585;28;20059;-62
2022/11/26 02:15:50;;;;;;;;;;;;;;;6.65;59.22;101299.69;5077518;28;20280;-61
2022/11/26 02:18:16;;;;;;;;;;;;;;;6.54;59.43;101297.00;5077151;28;20018;-61
2022/11/26 02:20:41;;;;;;;;;;;;;;;6.57;59.52;101302.22;5078494;28;20467;-62
2022/11/26 02:23:23;;;;;;;;;;;;;;;6.51;59.43;101302.19;5077694;28;19921;-62
2022/11/26 02:25:59;;;;;;;;;;;;;;;6.48;59.69;101304.75;5092731;28;19921;-61
2022/11/26 02:28:37;;;;;;;;;;;;;;;6.44;59.77;101304.72;5089760;28;19927;-62
2022/11/26 02:31:02;;;;;;;;;;;;;;;6.39;59.92;101302.94;5077857;28;19967;-61
2022/11/26 02:33:39;;;;;;;;;;;;;;;6.44;59.75;101307.31;5079129;28;19959;-62
2022/11/26 02:36:08;;;;;;;;;;;;;;;6.48;59.74;101309.09;5075937;28;19968;-61
2022/11/26 02:38:35;;;;;;;;;;;;;;;6.56;59.72;101299.59;5077952;28;19997;-60
2022/11/26 02:41:01;;;;;;;;;;;;;;;6.56;59.44;101308.31;5076801;28;19963;-60
2022/11/26 02:43:26;;;;;;;;;;;;;;;6.60;59.51;101312.69;5078420;28;20016;-62
2022/11/26 02:45:54;;;;;;;;;;;;;;;6.65;59.48;101305.78;5076351;28;20371;-60
2022/11/26 02:48:21;;;;;;;;;;;;;;;6.72;59.26;101311.06;5074402;28;20023;-60
2022/11/26 02:50:49;;;;;;;;;;;;;;;6.74;59.08;101306.72;5077481;28;20011;-61
2022/11/26 02:53:16;;;;;;;;;;;;;;;6.74;59.17;101312.81;5075015;28;19966;-62
2022/11/26 02:55:45;;;;;;;;;;;;;;;6.74;59.10;101311.94;5077478;28;19931;-62
2022/11/26 02:58:11;;;;;;;;;;;;;;;6.79;58.98;101305.03;5072094;28;19924;-62
2022/11/26 03:00:38;;;;;;;;;;;;;;;6.75;59.02;101305.88;5077392;28;19936;-61
2022/11/26 03:03:22;;;;;;;;;;;;;;;6.75;59.10;101313.72;5075851;28;20379;-62
2022/11/26 03:05:51;;;;;;;;;;;;;;;6.75;58.87;101313.72;5076406;28;19920;-60
2022/11/26 03:08:17;;;;;;;;;;;;;;;6.73;59.02;101313.69;5086685;28;19924;-60
2022/11/26 03:10:42;;;;;;;;;;;;;;;6.75;58.92;101321.56;5082624;28;20408;-61
2022/11/26 03:13:07;;;;;;;;;;;;;;;6.69;59.00;101324.09;5092155;28;19920;-62
2022/11/26 03:15:33;;;;;;;;;;;;;;;6.70;58.98;101325.84;5085977;28;19920;-61
2022/11/26 03:17:58;;;;;;;;;;;;;;;6.66;59.00;101325.84;5091442;28;20179;-61
2022/11/26 03:20:23;;;;;;;;;;;;;;;6.72;59.13;101321.50;5079380;28;20223;-62
2022/11/26 03:22:49;;;;;;;;;;;;;;;6.69;59.02;101326.69;5079383;28;19978;-61
2022/11/26 03:25:14;;;;;;;;;;;;;;;6.71;58.89;101320.66;5086815;28;19995;-62
2022/11/26 03:27:39;;;;;;;;;;;;;;;6.74;58.72;101332.84;5076985;28;19930;-62
2022/11/26 03:30:05;;;;;;;;;;;;;;;6.71;58.67;101338.06;5077931;28;20441;-61
2022/11/26 03:32:30;;;;;;;;;;;;;;;6.63;59.02;101333.63;5083175;28;19928;-62
2022/11/26 03:34:55;;;;;;;;;;;;;;;6.62;58.97;101336.22;5076479;28;19964;-62
2022/11/26 03:37:20;;;;;;;;;;;;;;;6.60;58.98;101340.56;5075117;28;19928;-62
2022/11/26 03:39:46;;;;;;;;;;;;;;;6.58;58.86;101343.16;5076672;28;19920;-61
2022/11/26 03:42:11;;;;;;;;;;;;;;;6.56;59.17;101347.47;5076582;28;20350;-62
2022/11/26 03:44:36;;;;;;;;;;;;;;;6.59;59.08;101344.91;5076765;28;19965;-62
2022/11/26 03:47:02;;;;;;;;;;;;;;;6.59;59.02;101344.03;5075398;28;19930;-61
2022/11/26 03:49:27;;;;;;;;;;;;;;;6.61;59.29;101337.94;5081816;28;19985;-61
2022/11/26 03:51:52;;;;;;;;;;;;;;;6.65;59.13;101338.84;5090040;28;19950;-62
2022/11/26 03:54:18;;;;;;;;;;;;;;;6.67;59.00;101344.97;5075303;28;19999;-61
2022/11/26 03:56:43;;;;;;;;;;;;;;;6.64;59.01;101350.16;5077528;28;20010;-61
2022/11/26 03:59:08;;;;;;;;;;;;;;;6.64;59.09;101350.16;5074678;28;19982;-62
2022/11/26 04:01:34;;;;;;;;;;;;;;;6.66;59.15;101349.34;5076590;28;19928;-61
2022/11/26 04:03:59;;;;;;;;;;;;;;;6.65;59.02;101344.94;5074830;28;20398;-61
2022/11/26 04:06:24;;;;;;;;;;;;;;;6.63;59.25;101357.13;5076547;28;19917;-61
2022/11/26 04:08:49;;;;;;;;;;;;;;;6.62;59.07;101352.78;5074948;28;19924;-60
2022/11/26 04:11:15;;;;;;;;;;;;;;;6.69;59.09;101355.44;5074118;28;19943;-60
2022/11/26 04:13:40;;;;;;;;;;;;;;;6.70;58.80;101360.66;5077291;28;20379;-60
2022/11/26 04:16:06;;;;;;;;;;;;;;;6.57;59.21;101356.19;5074845;28;19927;-60
2022/11/26 04:18:31;;;;;;;;;;;;;;;6.52;59.54;101363.97;5075234;28;19990;-61
2022/11/26 04:20:57;;;;;;;;;;;;;;;6.57;59.33;101364.03;5072570;28;20352;-60
2022/11/26 04:23:22;;;;;;;;;;;;;;;6.59;59.17;101371.03;5076111;28;19965;-61
2022/11/26 04:25:47;;;;;;;;;;;;;;;6.58;59.25;101374.50;5074786;28;19963;-60
2022/11/26 04:28:13;;;;;;;;;;;;;;;6.63;59.33;101379.75;5077852;28;19932;-60
2022/11/26 04:30:39;;;;;;;;;;;;;;;6.60;59.32;101377.97;5077007;28;19931;-60
2022/11/26 04:33:04;;;;;;;;;;;;;;;6.62;59.15;101378.00;5073160;28;19921;-61
2022/11/26 04:35:29;;;;;;;;;;;;;;;6.63;59.32;101374.53;5076477;28;20329;-61
2022/11/26 04:37:55;;;;;;;;;;;;;;;6.63;59.12;101375.41;5074615;28;19924;-62
2022/11/26 04:40:20;;;;;;;;;;;;;;;6.65;59.43;101383.25;5075327;28;20299;-61
2022/11/26 04:42:45;;;;;;;;;;;;;;;6.65;59.40;101385.88;5076409;28;19932;-62
2022/11/26 04:45:10;;;;;;;;;;;;;;;6.62;59.19;101385.81;5071771;28;19927;-61
2022/11/26 04:47:36;;;;;;;;;;;;;;;6.55;59.30;101387.50;5106178;28;20374;-61
2022/11/26 04:50:01;;;;;;;;;;;;;;;6.53;59.44;101381.38;5074461;28;19943;-61
2022/11/26 04:52:26;;;;;;;;;;;;;;;6.52;59.70;101381.38;5075924;28;19932;-61
2022/11/26 04:54:51;;;;;;;;;;;;;;;6.58;59.46;101384.03;5085099;28;19942;-61
2022/11/26 04:57:17;;;;;;;;;;;;;;;6.61;59.47;101382.34;5073351;28;20277;-61
2022/11/26 04:59:42;;;;;;;;;;;;;;;6.62;59.45;101384.13;5077266;28;19920;-60
2022/11/26 05:02:07;;;;;;;;;;;;;;;6.62;59.38;101385.81;5073978;28;20364;-60
2022/11/26 05:04:32;;;;;;;;;;;;;;;6.61;59.40;101389.31;5076724;28;19965;-60
2022/11/26 05:06:58;;;;;;;;;;;;;;;6.62;59.59;101399.78;5073521;28;19973;-60
2022/11/26 05:09:23;;;;;;;;;;;;;;;6.56;59.66;101401.44;5079142;28;19974;-61
2022/11/26 05:11:48;;;;;;;;;;;;;;;6.48;60.02;101396.13;5076112;28;19920;-61
2022/11/26 05:14:13;;;;;;;;;;;;;;;6.39;60.56;101403.88;5078979;28;19931;-61
2022/11/26 05:16:39;;;;;;;;;;;;;;;6.06;61.71;101402.56;5081437;28;19928;-61
2022/11/26 05:19:04;;;;;;;;;;;;;;;5.98;61.68;101404.19;5073460;28;19982;-61
2022/11/26 05:21:29;;;;;;;;;;;;;;;5.89;62.03;101407.53;5088574;28;19932;-62
2022/11/26 05:23:54;;;;;;;;;;;;;;;5.45;62.84;101406.88;5078247;28;19930;-60
2022/11/26 05:26:20;;;;;;;;;;;;;;;5.63;62.59;101404.56;5084654;28;19920;-61
2022/11/26 05:28:45;;;;;;;;;;;;;;;5.72;62.22;101406.44;5073569;28;19924;-60
2022/11/26 05:31:10;;;;;;;;;;;;;;;5.76;62.28;101418.66;5074202;28;19966;-62
2022/11/26 05:33:36;;;;;;;;;;;;;;;5.89;61.99;101415.34;5073284;28;19925;-60
2022/11/26 05:36:02;;;;;;;;;;;;;;;5.85;61.78;101421.38;5071067;28;20419;-61
2022/11/26 05:38:27;;;;;;;;;;;;;;;5.98;61.29;101424.19;5069056;28;20012;-62
2022/11/26 05:40:52;;;;;;;;;;;;;;;5.99;61.30;101426.84;5072396;28;19920;-61
2022/11/26 05:43:18;;;;;;;;;;;;;;;5.92;62.01;101425.00;5075915;28;19924;-60
2022/11/26 05:45:43;;;;;;;;;;;;;;;5.99;61.63;101429.47;5075381;28;20363;-62
2022/11/26 05:48:08;;;;;;;;;;;;;;;6.05;61.24;101426.91;5075918;28;19924;-62
2022/11/26 05:50:33;;;;;;;;;;;;;;;6.00;61.26;101433.81;5074982;28;19920;-62
2022/11/26 05:52:59;;;;;;;;;;;;;;;6.03;61.19;101433.88;5072205;28;19932;-60
2022/11/26 05:55:24;;;;;;;;;;;;;;;6.05;61.11;101439.97;5067837;28;19920;-61
2022/11/26 05:57:49;;;;;;;;;;;;;;;6.08;61.03;101433.91;5075798;28;20010;-61
2022/11/26 06:00:15;;;;;;;;;;;;;;;6.06;60.99;101446.91;5074495;28;19923;-60
2022/11/26 06:02:40;;;;;;;;;;;;;;;6.08;60.96;101442.63;5074633;28;20371;-60
2022/11/26 06:05:06;;;;;;;;;;;;;;;5.93;61.16;101448.50;5076306;28;20368;-62
2022/11/26 06:07:31;;;;;;;;;;;;;;;5.81;61.71;101452.63;5075410;28;19928;-62
2022/11/26 06:09:56;;;;;;;;;;;;;;;5.79;61.94;101459.56;5076288;28;19920;-62
2022/11/26 06:12:21;;;;;;;;;;;;;;;5.91;61.55;101465.84;5072846;28;20367;-60
2022/11/26 06:14:47;;;;;;;;;;;;;;;5.90;61.57;101469.31;5076018;28;20326;-60
2022/11/26 06:17:12;;;;;;;;;;;;;;;5.96;61.39;101476.38;5075392;28;19920;-60
2022/11/26 06:19:37;;;;;;;;;;;;;;;5.78;61.81;101469.09;5074986;28;20371;-61
2022/11/26 06:22:03;;;;;;;;;;;;;;;5.82;61.84;101475.25;5075300;28;20377;-61
2022/11/26 06:24:28;;;;;;;;;;;;;;;5.88;61.72;101484.03;5075292;28;19955;-62
2022/11/26 06:26:53;;;;;;;;;;;;;;;5.94;61.66;101475.44;5075250;28;20015;-61
2022/11/26 06:29:18;;;;;;;;;;;;;;;6.01;61.42;101481.66;5075038;28;20158;-61
2022/11/26 06:31:44;;;;;;;;;;;;;;;6.09;61.21;101475.69;5089490;28;20295;-61
2022/11/26 06:34:09;;;;;;;;;;;;;;;6.22;61.02;101468.88;5090763;28;19931;-61
2022/11/26 06:36:34;;;;;;;;;;;;;;;6.30;60.82;101477.69;5074065;28;19924;-61
2022/11/26 06:39:00;;;;;;;;;;;;;;;6.39;60.42;101470.00;5075851;28;19924;-62
2022/11/26 06:41:25;;;;;;;;;;;;;;;6.46;60.36;101478.78;5074098;28;19928;-62
2022/11/26 06:43:50;;;;;;;;;;;;;;;6.55;60.06;101480.66;5074384;28;20023;-62
2022/11/26 06:46:15;;;;;;;;;;;;;;;6.60;59.72;101484.19;5074979;28;19931;-62
2022/11/26 06:48:41;;;;;;;;;;;;;;;6.70;59.65;101483.41;5083557;28;19971;-62
2022/11/26 06:51:07;;;;;;;;;;;;;;;6.73;59.54;101490.41;5086007;28;20299;-62
2022/11/26 06:53:33;;;;;;;;;;;;;;;6.79;59.52;101490.50;5074080;28;19920;-61
2022/11/26 06:55:59;;;;;;;;;;;;;;;6.84;59.16;101494.91;5074552;28;20372;-61
2022/11/26 06:58:25;;;;;;;;;;;;;;;6.87;59.20;101488.84;5072842;28;19937;-61
2022/11/26 07:00:50;;;;;;;;;;;;;;;6.87;59.02;101497.56;5074413;28;19925;-61
2022/11/26 07:03:15;;;;;;;;;;;;;;;6.93;58.93;101501.09;5074483;28;20280;-61
2022/11/26 07:05:40;;;;;;;;;;;;;;;6.85;59.21;101495.78;5073066;28;19931;-62
2022/11/26 07:08:06;;;;;;;;;;;;;;;6.84;59.08;101500.13;5072292;28;19921;-61
2022/11/26 07:10:31;;;;;;;;;;;;;;;6.66;59.08;101506.03;5072844;28;19972;-62
2022/11/26 07:12:57;;;;;;;;;;;;;;;6.66;59.00;101511.25;5072423;28;20338;-62
2022/11/26 07:15:22;;;;;;;;;;;;;;;6.65;58.93;101513.84;5073232;28;20383;-64
2022/11/26 07:17:47;;;;;;;;;;;;;;;6.69;58.96;101509.53;5075123;28;19920;-61
2022/11/26 07:20:13;;;;;;;;;;;;;;;6.50;59.38;101514.50;5072972;28;19931;-63
2022/11/26 07:22:38;;;;;;;;;;;;;;;6.60;59.25;101512.91;5074072;28;20500;-61
2022/11/26 07:25:04;;;;;;;;;;;;;;;6.64;59.04;101512.97;5072946;28;19928;-61
2022/11/26 07:27:29;;;;;;;;;;;;;;;6.70;58.99;101512.16;5072281;28;19959;-61
2022/11/26 07:29:54;;;;;;;;;;;;;;;6.73;58.76;101512.19;5070876;28;19925;-61
2022/11/26 07:32:19;;;;;;;;;;;;;;;6.83;58.94;101518.41;5072843;28;19928;-62
2022/11/26 07:34:44;;;;;;;;;;;;;;;6.92;58.57;101515.91;5070239;28;20390;-60
2022/11/26 07:37:10;;;;;;;;;;;;;;;6.94;58.35;101519.41;5071723;28;19947;-60
2022/11/26 07:39:35;;;;;;;;;;;;;;;6.94;58.42;101522.00;5073014;28;19927;-61
2022/11/26 07:42:00;;;;;;;;;;;;;;;7.05;57.72;101529.97;5072638;28;19940;-60
2022/11/26 07:44:25;;;;;;;;;;;;;;;7.01;57.54;101523.84;5074505;28;19916;-60
2022/11/26 07:46:51;;;;;;;;;;;;;;;7.00;57.88;101531.69;5073298;28;19925;-60
2022/11/26 07:49:16;;;;;;;;;;;;;;;7.08;57.72;101533.50;5072304;28;20320;-61
2022/11/26 07:51:41;;;;;;;;;;;;;;;7.16;57.63;101529.25;5074307;28;19928;-62
2022/11/26 07:54:07;;;;;;;;;;;;;;;7.30;57.44;101546.78;5072723;28;20447;-63
2022/11/26 07:56:33;;;;;;;;;;;;;;;7.41;57.26;101547.78;5072224;28;19974;-62
2022/11/26 07:58:58;;;;;;;;;;;;;;;7.49;56.77;101553.97;5072574;28;19924;-63
2022/11/26 08:01:26;;;;;;;;;;;;;;;7.45;56.40;101546.94;5072908;28;20383;-64
2022/11/26 08:03:51;;;;;;;;;;;;;;;7.37;56.69;101546.00;5071326;28;19962;-63
2022/11/26 08:06:20;;;;;;;;;;;;;;;7.40;57.72;101559.13;5073407;28;19925;-63
2022/11/26 08:08:46;;;;;;;;;;;;;;;7.44;59.11;101555.66;5071391;28;19931;-63
2022/11/26 08:11:13;;;;;;;;;;;;;;;7.57;57.64;101554.91;5074010;28;20386;-64
2022/11/26 08:13:38;;;;;;;;;;;;;;;7.65;56.95;101555.84;5073859;28;20248;-63
2022/11/26 08:16:03;;;;;;;;;;;;;;;7.68;58.61;101554.16;5071261;28;19921;-62
2022/11/26 08:18:29;;;;;;;;;;;;;;;7.78;57.14;101558.59;5073300;28;19925;-63
2022/11/26 08:20:55;;;;;;;;;;;;;;;7.83;56.66;101560.38;5073900;28;19932;-63
2022/11/26 08:23:20;;;;;;;;;;;;;;;7.81;56.32;101567.34;5074010;28;19920;-63
2022/11/26 08:25:46;;;;;;;;;;;;;;;7.53;55.71;101571.44;5106241;28;19927;-64
2022/11/26 08:28:11;;;;;;;;;;;;;;;7.05;56.89;101577.91;5074717;28;19946;-62
2022/11/26 08:30:36;;;;;;;;;;;;;;;6.80;57.82;101594.13;5073471;28;19975;-63
2022/11/26 08:33:01;;;;;;;;;;;;;;;6.68;59.15;101586.13;5073156;28;19932;-64
2022/11/26 08:35:27;;;;;;;;;;;;;;;6.65;59.27;101587.84;5074173;28;19929;-64
2022/11/26 08:37:52;;;;;;;;;;;;;;;6.81;59.29;101582.81;5072382;28;19924;-63
2022/11/26 08:40:17;;;;;;;;;;;;;;;7.02;59.00;101580.50;5072876;28;19970;-64
2022/11/26 08:42:42;;;;;;;;;;;;;;;7.26;58.15;101581.59;5072907;28;19925;-63
2022/11/26 08:45:08;;;;;;;;;;;;;;;7.39;58.08;101584.38;5073703;28;19921;-62
2022/11/26 08:47:33;;;;;;;;;;;;;;;7.56;57.66;101594.13;5073619;28;19995;-61
2022/11/26 08:49:58;;;;;;;;;;;;;;;7.61;57.18;101589.81;5073925;28;20014;-63
2022/11/26 08:52:24;;;;;;;;;;;;;;;7.70;56.57;101589.94;5074135;28;19943;-64
2022/11/26 08:54:49;;;;;;;;;;;;;;;7.48;56.76;101595.81;5073889;28;19921;-63
2022/11/26 08:57:15;;;;;;;;;;;;;;;7.60;57.76;101602.03;5073543;28;19966;-62
2022/11/26 08:59:40;;;;;;;;;;;;;;;7.71;57.00;101603.88;5073492;28;19931;-62
2022/11/26 09:02:05;;;;;;;;;;;;;;;7.81;56.17;101606.59;5073580;28;19928;-62
2022/11/26 09:04:30;;;;;;;;;;;;;;;7.70;57.15;101604.72;5073493;28;20287;-63
2022/11/26 09:06:56;;;;;;;;;;;;;;;7.84;57.62;101609.22;5072732;28;19921;-63
2022/11/26 09:09:21;;;;;;;;;;;;;;;8.01;56.68;101606.75;5073594;28;19916;-63
2022/11/26 09:11:56;;;;;;;;;;;;;;;7.99;56.10;101610.25;5073409;28;20359;-62
2022/11/26 09:14:25;;;;;;;;;;;;;;;8.17;56.66;101612.13;5073471;28;19921;-63
2022/11/26 09:16:51;;;;;;;;;;;;;;;8.28;55.17;101613.09;5075011;28;19924;-63
2022/11/26 09:19:17;;;;;;;;;;;;;;;8.20;55.34;101609.53;5077085;28;19927;-63
2022/11/26 09:21:42;;;;;;;;;;;;;;;8.13;55.49;101621.69;5077385;28;20383;-63
2022/11/26 09:24:08;;;;;;;;;;;;;;;8.24;56.39;101612.19;5077442;28;20374;-63
2022/11/26 09:26:33;;;;;;;;;;;;;;;8.36;55.30;101614.00;5077172;28;19959;-62
2022/11/26 09:28:59;;;;;;;;;;;;;;;8.44;54.94;101612.34;5077131;28;19924;-64
2022/11/26 09:31:24;;;;;;;;;;;;;;;8.46;55.09;101612.34;5076895;28;19921;-62
2022/11/26 09:33:50;;;;;;;;;;;;;;;8.49;54.67;101609.75;5077020;28;19916;-63
2022/11/26 09:36:16;;;;;;;;;;;;;;;8.52;54.66;101615.91;5077118;28;19971;-63
2022/11/26 09:38:41;;;;;;;;;;;;;;;8.52;54.04;101613.28;5076894;28;19925;-63
2022/11/26 09:41:25;;;;;;;;;;;;;;;8.41;54.53;101622.81;5076985;28;20309;-64
2022/11/26 09:43:56;;;;;;;;;;;;;;;8.33;54.82;101622.72;5072607;28;19924;-64
2022/11/26 09:46:27;;;;;;;;;;;;;;;8.13;55.18;101625.19;5073978;28;20050;-64
2022/11/26 09:48:54;;;;;;;;;;;;;;;8.06;55.34;101625.16;5076921;28;20009;-64
2022/11/26 09:51:20;;;;;;;;;;;;;;;8.10;55.74;101630.41;5076589;28;19916;-63
2022/11/26 09:53:48;;;;;;;;;;;;;;;8.06;55.43;101631.25;5076563;28;19939;-64
2022/11/26 09:56:33;;;;;;;;;;;;;;;8.14;55.37;101633.94;5075034;28;19981;-63
2022/11/26 09:59:01;;;;;;;;;;;;;;;8.29;55.33;101633.16;5076377;28;20030;-63
2022/11/26 10:01:27;;;;;;;;;;;;;;;8.21;55.13;101629.59;5075086;28;19917;-63
2022/11/26 10:03:53;;;;;;;;;;;;;;;8.11;55.30;101628.66;5075941;28;20279;-63
2022/11/26 10:06:24;;;;;;;;;;;;;;;7.80;56.03;101632.75;5073729;28;20015;-64
2022/11/26 10:08:52;;;;;;;;;;;;;;;7.78;56.12;101630.13;5076610;28;19916;-64
2022/11/26 10:11:20;;;;;;;;;;;;;;;7.89;56.98;101635.44;5076081;28;19922;-63
2022/11/26 10:13:45;;;;;;;;;;;;;;;7.85;57.01;101642.38;5075119;28;19916;-63
2022/11/26 10:16:26;;;;;;;;;;;;;;;7.90;56.38;101640.72;5074591;28;19920;-63
2022/11/26 10:18:51;;;;;;;;;;;;;;;8.00;56.07;101641.66;5076298;28;19916;-63
2022/11/26 10:21:20;;;;;;;;;;;;;;;8.07;56.27;101638.25;5074264;28;19966;-64
2022/11/26 10:24:06;;;;;;;;;;;;;;;8.08;55.37;101633.88;5073768;28;19927;-63
2022/11/26 10:26:37;;;;;;;;;;;;;;;7.90;55.91;101642.47;5048049;28;20003;-63
2022/11/26 10:29:14;;;;;;;;;;;;;;;7.68;56.73;101641.34;5075913;28;20371;-63
2022/11/26 10:31:41;;;;;;;;;;;;;;;7.43;57.48;101637.59;5055574;28;19924;-63
2022/11/26 10:34:13;;;;;;;;;;;;;;;7.60;57.40;101638.66;5056139;28;19916;-62
2022/11/26 10:36:40;;;;;;;;;;;;;;;7.67;57.36;101639.59;5055662;28;20380;-63
2022/11/26 10:39:06;;;;;;;;;;;;;;;7.92;56.30;101638.09;5055912;28;19916;-63
2022/11/26 10:41:36;;;;;;;;;;;;;;;8.17;56.33;101635.69;5055732;28;20016;-64
2022/11/26 10:44:19;;;;;;;;;;;;;;;8.23;55.81;101638.38;5055657;28;20292;-63
2022/11/26 10:46:45;;;;;;;;;;;;;;;8.33;56.18;101642.78;5055806;28;19924;-63
2022/11/26 10:49:27;;;;;;;;;;;;;;;8.47;55.43;101637.72;5061268;28;19924;-63
2022/11/26 10:51:55;;;;;;;;;;;;;;;8.37;55.36;101645.47;5078858;28;19920;-62
2022/11/26 10:54:25;;;;;;;;;;;;;;;8.33;55.26;101651.53;5077911;28;19961;-63
2022/11/26 10:56:53;;;;;;;;;;;;;;;7.75;56.51;101650.16;5073474;28;19924;-63
2022/11/26 10:59:29;;;;;;;;;;;;;;;7.21;58.64;101646.03;5075335;28;20295;-63
2022/11/26 11:02:00;;;;;;;;;;;;;;;7.12;59.02;101650.28;5075507;28;19917;-63
2022/11/26 11:04:28;;;;;;;;;;;;;;;7.04;59.13;101648.44;5075485;28;19917;-64
2022/11/26 11:06:53;;;;;;;;;;;;;;;7.27;58.97;101656.59;5075396;28;20367;-64
2022/11/26 11:09:32;;;;;;;;;;;;;;;7.07;59.47;101648.50;5075004;28;19917;-62
2022/11/26 11:12:10;;;;;;;;;;;;;;;7.37;58.60;101645.38;5075112;28;19916;-62
2022/11/26 11:14:36;;;;;;;;;;;;;;;7.40;58.54;101653.25;5075215;28;20372;-62
2022/11/26 11:17:01;;;;;;;;;;;;;;;7.57;58.32;101646.47;5073891;28;19969;-62
2022/11/26 11:19:27;;;;;;;;;;;;;;;7.50;57.94;101654.22;5075180;28;19930;-62
2022/11/26 11:21:52;;;;;;;;;;;;;;;7.68;57.93;101653.56;5074906;28;19923;-64
2022/11/26 11:24:20;;;;;;;;;;;;;;;7.88;57.63;101647.66;5075156;28;19969;-63
2022/11/26 11:26:47;;;;;;;;;;;;;;;7.75;57.51;101650.16;5073718;28;19916;-62
2022/11/26 11:29:31;;;;;;;;;;;;;;;8.01;57.06;101653.88;5074899;28;19995;-63
2022/11/26 11:31:57;;;;;;;;;;;;;;;8.09;56.74;101657.44;5074793;28;19916;-62
2022/11/26 11:34:28;;;;;;;;;;;;;;;8.07;56.80;101666.16;5074476;28;19916;-62
2022/11/26 11:36:59;;;;;;;;;;;;;;;7.88;56.94;101665.09;5074837;28;20019;-62
2022/11/26 11:39:34;;;;;;;;;;;;;;;7.96;57.09;101660.81;5086894;28;20375;-63
2022/11/26 11:42:00;;;;;;;;;;;;;;;8.14;56.87;101666.22;5094179;28;19922;-62
2022/11/26 11:44:30;;;;;;;;;;;;;;;8.18;56.66;101667.13;5094897;28;20379;-62
2022/11/26 11:47:11;;;;;;;;;;;;;;;8.04;56.80;101666.13;5094927;28;19962;-61
2022/11/26 11:50:00;;;;;;;;;;;;;;;7.98;57.12;101664.34;5094961;28;19924;-62
2022/11/26 11:52:48;;;;;;;;;;;;;;;7.76;57.89;101676.31;5093631;28;20284;-63
2022/11/26 11:55:17;;;;;;;;;;;;;;;7.80;57.65;101674.63;5094592;28;19916;-63
2022/11/26 11:57:42;;;;;;;;;;;;;;;7.77;57.69;101679.81;5094576;28;20294;-63
2022/11/26 12:00:13;;;;;;;;;;;;;;;7.91;57.50;101673.00;5094560;28;20011;-62
2022/11/26 12:02:58;;;;;;;;;;;;;;;7.67;57.77;101662.28;5094601;28;19917;-63
2022/11/26 12:05:29;;;;;;;;;;;;;;;7.87;57.83;101671.19;5094297;28;20363;-63
2022/11/26 12:08:13;;;;;;;;;;;;;;;7.83;57.81;101653.72;5094608;28;19916;-63
2022/11/26 12:10:48;;;;;;;;;;;;;;;8.03;57.22;101657.41;5094331;28;20382;-63
2022/11/26 12:13:14;;;;;;;;;;;;;;;8.13;57.13;101653.09;5094439;28;19916;-62
2022/11/26 12:15:50;;;;;;;;;;;;;;;7.97;56.99;101659.94;5094207;28;19924;-62
2022/11/26 12:18:22;;;;;;;;;;;;;;;8.11;56.96;101667.94;5094250;28;20018;-63
2022/11/26 12:20:56;;;;;;;;;;;;;;;8.05;56.99;101666.13;5088513;28;19925;-63
2022/11/26 12:23:39;;;;;;;;;;;;;;;8.10;56.97;101663.56;5071399;28;19999;-63
2022/11/26 12:26:25;;;;;;;;;;;;;;;7.79;57.77;101667.63;5072940;28;19955;-63
2022/11/26 12:28:53;;;;;;;;;;;;;;;7.39;58.64;101673.28;5071934;28;20378;-64
2022/11/26 12:31:22;;;;;;;;;;;;;;;7.28;59.09;101660.94;5072375;28;20401;-63
2022/11/26 12:33:51;;;;;;;;;;;;;;;7.52;58.71;101661.22;5069843;28;19924;-62
2022/11/26 12:36:34;;;;;;;;;;;;;;;7.43;58.98;101658.53;5070697;28;20291;-63
2022/11/26 12:39:02;;;;;;;;;;;;;;;7.33;59.26;101665.38;5073814;28;19921;-62
2022/11/26 12:41:39;;;;;;;;;;;;;;;7.61;58.83;101663.06;5073268;28;20015;-61
2022/11/26 12:44:16;;;;;;;;;;;;;;;7.59;58.65;101656.97;5069166;28;19956;-62
2022/11/26 12:47:03;;;;;;;;;;;;;;;7.64;58.41;101657.88;5073239;28;20272;-62
2022/11/26 12:49:35;;;;;;;;;;;;;;;7.35;59.20;101658.44;5073772;28;19932;-62
2022/11/26 12:52:05;;;;;;;;;;;;;;;7.44;59.28;101655.03;5074667;28;19916;-62